< < Back
Terminal Aerodrome Forecast


Current Version              Previous Versions:   1  2  3  4  5  6  7  8  9  

Terminal Aerodrome Forecast

616
FTAK31 PAJN 042322
TAFAHN
TAF
PAHN 042322Z 0500/0524 30010KT P6SM SCT150
     FM050600 VRB04KT P6SM SCT050 BKN100
     FM051200 10005KT P6SM SCT040 BKN080
     FM051700 12008KT P6SM SCT020 BKN040
     FM052100 12010KT P6SM VCSH OVC035
      AMD LTD TO CLD VIS AND WIND=

Latest METAR

674
SAUS70 KWBC 051000
MTRAHN
METAR KAHN 050951Z AUTO 18003KT 10SM CLR 23/20 A3003 RMK AO2 SLP158
T02330200


USA.gov is the U.S. government's official web portal to all federal, state and local government web resources and services.